sensor_id;sensor_type;location;lat;lon;timestamp;P1;durP1;ratioP1;P2;durP2;ratioP2
61617;SDS011;47518;51.776;9.370;2023-05-10T00:01:31;6.25;;;4.90;;
61617;SDS011;47518;51.776;9.370;2023-05-10T00:04:11;5.20;;;4.70;;
61617;SDS011;47518;51.776;9.370;2023-05-10T00:06:36;4.97;;;4.47;;
61617;SDS011;47518;51.776;9.370;2023-05-10T00:09:02;5.15;;;4.70;;
61617;SDS011;47518;51.776;9.370;2023-05-10T00:11:27;5.32;;;4.82;;
61617;SDS011;47518;51.776;9.370;2023-05-10T00:13:53;5.40;;;4.90;;
61617;SDS011;47518;51.776;9.370;2023-05-10T00:16:18;5.30;;;4.80;;
61617;SDS011;47518;51.776;9.370;2023-05-10T00:18:44;5.53;;;5.10;;
61617;SDS011;47518;51.776;9.370;2023-05-10T00:21:09;5.45;;;4.95;;
61617;SDS011;47518;51.776;9.370;2023-05-10T00:23:35;5.30;;;4.80;;
61617;SDS011;47518;51.776;9.370;2023-05-10T00:26:00;5.07;;;4.68;;
61617;SDS011;47518;51.776;9.370;2023-05-10T00:28:27;5.32;;;4.65;;
61617;SDS011;47518;51.776;9.370;2023-05-10T00:30:56;7.53;;;5.22;;
61617;SDS011;47518;51.776;9.370;2023-05-10T00:33:22;5.43;;;4.90;;
61617;SDS011;47518;51.776;9.370;2023-05-10T00:35:50;5.63;;;4.70;;
61617;SDS011;47518;51.776;9.370;2023-05-10T00:38:15;5.30;;;4.80;;
61617;SDS011;47518;51.776;9.370;2023-05-10T00:40:41;7.50;;;4.93;;
61617;SDS011;47518;51.776;9.370;2023-05-10T00:43:06;5.43;;;5.03;;
61617;SDS011;47518;51.776;9.370;2023-05-10T00:45:34;7.00;;;5.10;;
61617;SDS011;47518;51.776;9.370;2023-05-10T00:48:01;5.20;;;4.70;;
61617;SDS011;47518;51.776;9.370;2023-05-10T00:50:27;5.75;;;5.10;;
61617;SDS011;47518;51.776;9.370;2023-05-10T00:52:53;5.55;;;4.90;;
61617;SDS011;47518;51.776;9.370;2023-05-10T00:55:18;5.70;;;5.10;;
61617;SDS011;47518;51.776;9.370;2023-05-10T00:57:44;5.80;;;5.20;;
61617;SDS011;47518;51.776;9.370;2023-05-10T01:00:15;5.70;;;5.20;;
61617;SDS011;47518;51.776;9.370;2023-05-10T01:02:43;5.80;;;5.32;;
61617;SDS011;47518;51.776;9.370;2023-05-10T01:05:10;7.15;;;5.70;;
61617;SDS011;47518;51.776;9.370;2023-05-10T01:07:35;5.65;;;5.10;;
61617;SDS011;47518;51.776;9.370;2023-05-10T01:10:01;5.90;;;5.40;;
61617;SDS011;47518;51.776;9.370;2023-05-10T01:12:26;5.50;;;5.03;;
61617;SDS011;47518;51.776;9.370;2023-05-10T01:14:51;6.07;;;5.18;;
61617;SDS011;47518;51.776;9.370;2023-05-10T01:17:17;5.70;;;5.18;;
61617;SDS011;47518;51.776;9.370;2023-05-10T01:19:43;5.97;;;5.15;;
61617;SDS011;47518;51.776;9.370;2023-05-10T01:33:47;8.45;;;5.65;;
61617;SDS011;47518;51.776;9.370;2023-05-10T01:36:29;6.15;;;5.55;;
61617;SDS011;47518;51.776;9.370;2023-05-10T01:38:58;6.47;;;5.63;;
61617;SDS011;47518;51.776;9.370;2023-05-10T01:44:31;6.18;;;5.57;;
61617;SDS011;47518;51.776;9.370;2023-05-10T01:47:04;6.43;;;5.93;;
61617;SDS011;47518;51.776;9.370;2023-05-10T01:49:42;6.60;;;6.00;;
61617;SDS011;47518;51.776;9.370;2023-05-10T01:52:16;7.07;;;6.18;;
61617;SDS011;47518;51.776;9.370;2023-05-10T01:54:48;6.97;;;6.38;;
61617;SDS011;47518;51.776;9.370;2023-05-10T01:57:18;7.03;;;6.43;;
61617;SDS011;47518;51.776;9.370;2023-05-10T01:59:47;7.45;;;6.43;;
61617;SDS011;47518;51.776;9.370;2023-05-10T02:02:17;7.20;;;6.30;;
61617;SDS011;47518;51.776;9.370;2023-05-10T02:04:45;6.80;;;6.20;;
61617;SDS011;47518;51.776;9.370;2023-05-10T02:07:12;7.85;;;6.30;;
61617;SDS011;47518;51.776;9.370;2023-05-10T02:09:39;6.90;;;6.20;;
61617;SDS011;47518;51.776;9.370;2023-05-10T02:12:07;7.07;;;6.43;;
61617;SDS011;47518;51.776;9.370;2023-05-10T02:14:34;7.30;;;6.60;;
61617;SDS011;47518;51.776;9.370;2023-05-10T02:17:02;9.95;;;6.30;;
61617;SDS011;47518;51.776;9.370;2023-05-10T02:19:35;11.82;;;7.68;;
61617;SDS011;47518;51.776;9.370;2023-05-10T02:22:03;7.90;;;7.18;;
61617;SDS011;47518;51.776;9.370;2023-05-10T02:24:30;11.52;;;8.07;;
61617;SDS011;47518;51.776;9.370;2023-05-10T02:26:58;11.95;;;8.32;;
61617;SDS011;47518;51.776;9.370;2023-05-10T02:29:25;12.10;;;8.20;;
61617;SDS011;47518;51.776;9.370;2023-05-10T02:31:53;10.82;;;8.30;;
61617;SDS011;47518;51.776;9.370;2023-05-10T02:34:21;14.93;;;8.75;;
61617;SDS011;47518;51.776;9.370;2023-05-10T02:36:48;10.20;;;8.50;;
61617;SDS011;47518;51.776;9.370;2023-05-10T02:39:15;9.07;;;8.18;;
61617;SDS011;47518;51.776;9.370;2023-05-10T02:41:43;10.65;;;8.55;;
61617;SDS011;47518;51.776;9.370;2023-05-10T02:44:11;9.10;;;8.35;;
61617;SDS011;47518;51.776;9.370;2023-05-10T02:46:44;9.77;;;8.75;;
61617;SDS011;47518;51.776;9.370;2023-05-10T02:49:10;9.23;;;8.20;;
61617;SDS011;47518;51.776;9.370;2023-05-10T02:51:36;10.65;;;8.93;;
61617;SDS011;47518;51.776;9.370;2023-05-10T02:54:08;9.10;;;8.20;;
61617;SDS011;47518;51.776;9.370;2023-05-10T02:56:38;10.65;;;8.07;;
61617;SDS011;47518;51.776;9.370;2023-05-10T02:59:07;10.27;;;8.40;;
61617;SDS011;47518;51.776;9.370;2023-05-10T03:01:33;10.65;;;8.77;;
61617;SDS011;47518;51.776;9.370;2023-05-10T03:03:58;11.52;;;9.05;;
61617;SDS011;47518;51.776;9.370;2023-05-10T03:06:24;10.13;;;9.00;;
61617;SDS011;47518;51.776;9.370;2023-05-10T03:08:50;9.25;;;8.35;;
61617;SDS011;47518;51.776;9.370;2023-05-10T03:11:21;10.90;;;9.30;;
61617;SDS011;47518;51.776;9.370;2023-05-10T03:14:07;10.32;;;8.85;;
61617;SDS011;47518;51.776;9.370;2023-05-10T03:16:44;10.30;;;8.93;;
61617;SDS011;47518;51.776;9.370;2023-05-10T03:19:16;14.38;;;9.80;;
61617;SDS011;47518;51.776;9.370;2023-05-10T03:21:49;17.10;;;10.00;;
61617;SDS011;47518;51.776;9.370;2023-05-10T03:24:16;10.70;;;9.60;;
61617;SDS011;47518;51.776;9.370;2023-05-10T03:26:43;10.70;;;9.60;;
61617;SDS011;47518;51.776;9.370;2023-05-10T03:29:11;10.82;;;9.68;;
61617;SDS011;47518;51.776;9.370;2023-05-10T03:31:40;13.43;;;9.70;;
61617;SDS011;47518;51.776;9.370;2023-05-10T03:34:06;13.00;;;10.23;;
61617;SDS011;47518;51.776;9.370;2023-05-10T03:36:32;12.38;;;10.25;;
61617;SDS011;47518;51.776;9.370;2023-05-10T03:38:57;12.35;;;10.65;;
61617;SDS011;47518;51.776;9.370;2023-05-10T03:41:23;13.20;;;10.43;;
61617;SDS011;47518;51.776;9.370;2023-05-10T03:43:48;14.50;;;10.27;;
61617;SDS011;47518;51.776;9.370;2023-05-10T03:46:14;13.55;;;10.55;;
61617;SDS011;47518;51.776;9.370;2023-05-10T03:48:39;7.50;;;6.60;;
61617;SDS011;47518;51.776;9.370;2023-05-10T03:51:04;10.50;;;9.40;;
61617;SDS011;47518;51.776;9.370;2023-05-10T03:53:30;6.30;;;5.70;;
61617;SDS011;47518;51.776;9.370;2023-05-10T03:55:55;9.20;;;8.30;;
61617;SDS011;47518;51.776;9.370;2023-05-10T03:58:21;8.10;;;7.30;;
61617;SDS011;47518;51.776;9.370;2023-05-10T04:00:46;4.82;;;4.43;;
61617;SDS011;47518;51.776;9.370;2023-05-10T04:03:12;4.45;;;4.05;;
61617;SDS011;47518;51.776;9.370;2023-05-10T04:05:38;4.13;;;3.90;;
61617;SDS011;47518;51.776;9.370;2023-05-10T04:08:03;4.00;;;3.70;;
61617;SDS011;47518;51.776;9.370;2023-05-10T04:10:32;3.97;;;3.67;;
61617;SDS011;47518;51.776;9.370;2023-05-10T04:12:57;4.50;;;4.10;;
61617;SDS011;47518;51.776;9.370;2023-05-10T04:15:23;4.53;;;4.07;;
61617;SDS011;47518;51.776;9.370;2023-05-10T04:17:48;4.22;;;3.92;;
61617;SDS011;47518;51.776;9.370;2023-05-10T04:20:16;5.05;;;4.60;;
61617;SDS011;47518;51.776;9.370;2023-05-10T04:22:42;6.93;;;4.30;;
61617;SDS011;47518;51.776;9.370;2023-05-10T04:25:07;5.18;;;4.32;;
61617;SDS011;47518;51.776;9.370;2023-05-10T04:27:33;4.55;;;4.20;;
61617;SDS011;47518;51.776;9.370;2023-05-10T04:29:58;5.53;;;4.28;;
61617;SDS011;47518;51.776;9.370;2023-05-10T04:32:29;4.68;;;4.28;;
61617;SDS011;47518;51.776;9.370;2023-05-10T04:35:04;6.43;;;4.80;;
61617;SDS011;47518;51.776;9.370;2023-05-10T04:37:30;5.40;;;4.50;;
61617;SDS011;47518;51.776;9.370;2023-05-10T04:39:58;4.90;;;4.50;;
61617;SDS011;47518;51.776;9.370;2023-05-10T04:42:24;4.60;;;4.30;;
61617;SDS011;47518;51.776;9.370;2023-05-10T04:44:50;4.70;;;4.15;;
61617;SDS011;47518;51.776;9.370;2023-05-10T04:47:17;4.47;;;4.18;;
61617;SDS011;47518;51.776;9.370;2023-05-10T04:49:42;4.63;;;4.25;;
61617;SDS011;47518;51.776;9.370;2023-05-10T04:52:10;4.80;;;4.40;;
61617;SDS011;47518;51.776;9.370;2023-05-10T04:54:36;5.35;;;4.93;;
61617;SDS011;47518;51.776;9.370;2023-05-10T04:57:01;5.45;;;5.00;;
61617;SDS011;47518;51.776;9.370;2023-05-10T04:59:27;5.30;;;4.90;;
61617;SDS011;47518;51.776;9.370;2023-05-10T05:01:55;4.90;;;4.53;;
61617;SDS011;47518;51.776;9.370;2023-05-10T05:04:20;5.85;;;5.15;;
61617;SDS011;47518;51.776;9.370;2023-05-10T05:06:49;6.47;;;5.80;;
61617;SDS011;47518;51.776;9.370;2023-05-10T05:09:14;6.35;;;5.32;;
61617;SDS011;47518;51.776;9.370;2023-05-10T05:11:39;6.57;;;5.97;;
61617;SDS011;47518;51.776;9.370;2023-05-10T05:14:05;6.63;;;5.95;;
61617;SDS011;47518;51.776;9.370;2023-05-10T05:16:37;6.28;;;5.75;;
61617;SDS011;47518;51.776;9.370;2023-05-10T05:19:05;6.07;;;5.57;;
61617;SDS011;47518;51.776;9.370;2023-05-10T05:21:31;6.13;;;5.63;;
61617;SDS011;47518;51.776;9.370;2023-05-10T05:23:57;6.72;;;6.13;;
61617;SDS011;47518;51.776;9.370;2023-05-10T05:26:23;6.30;;;5.80;;
61617;SDS011;47518;51.776;9.370;2023-05-10T05:28:51;6.80;;;6.10;;
61617;SDS011;47518;51.776;9.370;2023-05-10T05:31:19;6.28;;;5.78;;
61617;SDS011;47518;51.776;9.370;2023-05-10T05:33:57;7.65;;;6.10;;
61617;SDS011;47518;51.776;9.370;2023-05-10T05:36:32;6.05;;;5.55;;
61617;SDS011;47518;51.776;9.370;2023-05-10T05:41:32;6.78;;;6.07;;
61617;SDS011;47518;51.776;9.370;2023-05-10T05:43:58;4.47;;;2.95;;
61617;SDS011;47518;51.776;9.370;2023-05-10T05:46:48;2.95;;;2.25;;
61617;SDS011;47518;51.776;9.370;2023-05-10T05:49:21;2.10;;;2.00;;
61617;SDS011;47518;51.776;9.370;2023-05-10T05:51:54;2.08;;;1.88;;
61617;SDS011;47518;51.776;9.370;2023-05-10T05:54:23;1.92;;;1.88;;
61617;SDS011;47518;51.776;9.370;2023-05-10T05:56:49;2.00;;;1.90;;
61617;SDS011;47518;51.776;9.370;2023-05-10T05:59:27;1.80;;;1.80;;
61617;SDS011;47518;51.776;9.370;2023-05-10T06:01:54;2.00;;;1.90;;
61617;SDS011;47518;51.776;9.370;2023-05-10T06:04:19;1.80;;;1.70;;
61617;SDS011;47518;51.776;9.370;2023-05-10T06:06:50;2.10;;;2.00;;
61617;SDS011;47518;51.776;9.370;2023-05-10T06:09:19;1.75;;;1.70;;
61617;SDS011;47518;51.776;9.370;2023-05-10T06:33:55;2.50;;;2.33;;
61617;SDS011;47518;51.776;9.370;2023-05-10T06:36:44;2.17;;;2.00;;
61617;SDS011;47518;51.776;9.370;2023-05-10T06:39:15;4.00;;;2.10;;
61617;SDS011;47518;51.776;9.370;2023-05-10T06:41:51;2.90;;;1.85;;
61617;SDS011;47518;51.776;9.370;2023-05-10T06:44:19;1.70;;;1.70;;
61617;SDS011;47518;51.776;9.370;2023-05-10T06:46:50;1.90;;;1.80;;
61617;SDS011;47518;51.776;9.370;2023-05-10T06:49:37;1.70;;;1.60;;
61617;SDS011;47518;51.776;9.370;2023-05-10T06:52:09;1.83;;;1.73;;
61617;SDS011;47518;51.776;9.370;2023-05-10T06:54:35;1.73;;;1.63;;
61617;SDS011;47518;51.776;9.370;2023-05-10T06:57:01;1.90;;;1.80;;
61617;SDS011;47518;51.776;9.370;2023-05-10T06:59:28;1.90;;;1.80;;
61617;SDS011;47518;51.776;9.370;2023-05-10T07:01:53;2.28;;;1.88;;
61617;SDS011;47518;51.776;9.370;2023-05-10T07:04:19;1.73;;;1.73;;
61617;SDS011;47518;51.776;9.370;2023-05-10T07:06:45;1.70;;;1.60;;
61617;SDS011;47518;51.776;9.370;2023-05-10T07:09:11;1.60;;;1.60;;
61617;SDS011;47518;51.776;9.370;2023-05-10T07:11:40;1.98;;;1.60;;
61617;SDS011;47518;51.776;9.370;2023-05-10T07:14:08;1.40;;;1.40;;
61617;SDS011;47518;51.776;9.370;2023-05-10T07:16:34;5.95;;;1.60;;
61617;SDS011;47518;51.776;9.370;2023-05-10T07:19:00;1.80;;;1.70;;
61617;SDS011;47518;51.776;9.370;2023-05-10T07:21:27;1.90;;;1.80;;
61617;SDS011;47518;51.776;9.370;2023-05-10T07:23:53;1.92;;;1.73;;
61617;SDS011;47518;51.776;9.370;2023-05-10T07:26:19;1.63;;;1.63;;
61617;SDS011;47518;51.776;9.370;2023-05-10T07:28:44;1.70;;;1.60;;
61617;SDS011;47518;51.776;9.370;2023-05-10T07:31:11;2.15;;;1.77;;
61617;SDS011;47518;51.776;9.370;2023-05-10T07:33:38;1.60;;;1.60;;
61617;SDS011;47518;51.776;9.370;2023-05-10T07:36:07;1.80;;;1.70;;
61617;SDS011;47518;51.776;9.370;2023-05-10T07:38:33;1.60;;;1.60;;
61617;SDS011;47518;51.776;9.370;2023-05-10T07:41:01;2.35;;;1.75;;
61617;SDS011;47518;51.776;9.370;2023-05-10T07:43:27;1.92;;;1.83;;
61617;SDS011;47518;51.776;9.370;2023-05-10T07:45:55;1.90;;;1.70;;
61617;SDS011;47518;51.776;9.370;2023-05-10T07:48:22;2.28;;;1.80;;
61617;SDS011;47518;51.776;9.370;2023-05-10T07:50:50;1.92;;;1.83;;
61617;SDS011;47518;51.776;9.370;2023-05-10T07:53:19;1.90;;;1.80;;
61617;SDS011;47518;51.776;9.370;2023-05-10T07:55:49;2.40;;;2.10;;
61617;SDS011;47518;51.776;9.370;2023-05-10T07:58:23;2.50;;;2.10;;
61617;SDS011;47518;51.776;9.370;2023-05-10T08:00:55;2.28;;;1.85;;
61617;SDS011;47518;51.776;9.370;2023-05-10T08:03:21;2.30;;;2.10;;
61617;SDS011;47518;51.776;9.370;2023-05-10T08:05:46;2.25;;;1.95;;
61617;SDS011;47518;51.776;9.370;2023-05-10T08:08:12;2.03;;;1.92;;
61617;SDS011;47518;51.776;9.370;2023-05-10T08:10:49;1.90;;;1.80;;
61617;SDS011;47518;51.776;9.370;2023-05-10T08:13:19;2.10;;;2.00;;
61617;SDS011;47518;51.776;9.370;2023-05-10T08:15:50;2.17;;;2.08;;
61617;SDS011;47518;51.776;9.370;2023-05-10T08:18:18;2.47;;;2.28;;
61617;SDS011;47518;51.776;9.370;2023-05-10T08:20:44;2.10;;;2.00;;
61617;SDS011;47518;51.776;9.370;2023-05-10T08:26:04;2.20;;;2.10;;
61617;SDS011;47518;51.776;9.370;2023-05-10T08:31:37;2.30;;;2.20;;
61617;SDS011;47518;51.776;9.370;2023-05-10T08:34:06;2.20;;;2.10;;
61617;SDS011;47518;51.776;9.370;2023-05-10T08:36:31;2.30;;;2.20;;
61617;SDS011;47518;51.776;9.370;2023-05-10T08:39:00;2.30;;;2.20;;
61617;SDS011;47518;51.776;9.370;2023-05-10T08:44:24;2.20;;;2.10;;
61617;SDS011;47518;51.776;9.370;2023-05-10T08:46:51;2.30;;;2.20;;
61617;SDS011;47518;51.776;9.370;2023-05-10T08:49:20;2.30;;;2.17;;
61617;SDS011;47518;51.776;9.370;2023-05-10T08:51:48;2.20;;;2.10;;
61617;SDS011;47518;51.776;9.370;2023-05-10T08:54:31;3.15;;;2.10;;
61617;SDS011;47518;51.776;9.370;2023-05-10T08:57:00;2.30;;;2.20;;
61617;SDS011;47518;51.776;9.370;2023-05-10T08:59:48;3.28;;;2.20;;
61617;SDS011;47518;51.776;9.370;2023-05-10T09:02:16;2.97;;;2.40;;
61617;SDS011;47518;51.776;9.370;2023-05-10T09:04:46;2.60;;;2.40;;
61617;SDS011;47518;51.776;9.370;2023-05-10T09:07:15;3.65;;;2.40;;
61617;SDS011;47518;51.776;9.370;2023-05-10T09:09:45;3.80;;;2.38;;
61617;SDS011;47518;51.776;9.370;2023-05-10T09:12:11;4.78;;;2.30;;
61617;SDS011;47518;51.776;9.370;2023-05-10T09:14:41;3.53;;;2.30;;
61617;SDS011;47518;51.776;9.370;2023-05-10T09:17:09;2.95;;;2.40;;
61617;SDS011;47518;51.776;9.370;2023-05-10T09:19:35;2.80;;;2.50;;
61617;SDS011;47518;51.776;9.370;2023-05-10T09:22:01;2.60;;;2.40;;
61617;SDS011;47518;51.776;9.370;2023-05-10T09:24:31;3.03;;;2.80;;
61617;SDS011;47518;51.776;9.370;2023-05-10T09:26:57;2.85;;;2.65;;
61617;SDS011;47518;51.776;9.370;2023-05-10T09:29:24;2.80;;;2.60;;
61617;SDS011;47518;51.776;9.370;2023-05-10T09:31:51;3.67;;;2.90;;
61617;SDS011;47518;51.776;9.370;2023-05-10T09:34:17;3.00;;;2.80;;
61617;SDS011;47518;51.776;9.370;2023-05-10T09:36:52;3.60;;;2.90;;
61617;SDS011;47518;51.776;9.370;2023-05-10T09:39:19;3.03;;;2.70;;
61617;SDS011;47518;51.776;9.370;2023-05-10T09:42:05;2.92;;;2.70;;
61617;SDS011;47518;51.776;9.370;2023-05-10T09:44:32;3.05;;;2.70;;
61617;SDS011;47518;51.776;9.370;2023-05-10T09:46:58;6.40;;;3.00;;
61617;SDS011;47518;51.776;9.370;2023-05-10T09:49:24;4.47;;;3.30;;
61617;SDS011;47518;51.776;9.370;2023-05-10T09:52:06;4.35;;;3.05;;
61617;SDS011;47518;51.776;9.370;2023-05-10T09:54:34;3.10;;;2.90;;
61617;SDS011;47518;51.776;9.370;2023-05-10T09:57:00;3.80;;;3.38;;
61617;SDS011;47518;51.776;9.370;2023-05-10T09:59:26;3.65;;;3.40;;
61617;SDS011;47518;51.776;9.370;2023-05-10T10:01:53;4.38;;;3.85;;
61617;SDS011;47518;51.776;9.370;2023-05-10T10:04:22;7.63;;;4.40;;
61617;SDS011;47518;51.776;9.370;2023-05-10T10:06:58;5.95;;;4.00;;
61617;SDS011;47518;51.776;9.370;2023-05-10T10:09:28;5.57;;;3.40;;
61617;SDS011;47518;51.776;9.370;2023-05-10T10:11:54;4.75;;;3.72;;
61617;SDS011;47518;51.776;9.370;2023-05-10T10:14:19;4.28;;;3.80;;
61617;SDS011;47518;51.776;9.370;2023-05-10T10:16:46;5.80;;;3.53;;
61617;SDS011;47518;51.776;9.370;2023-05-10T10:19:12;4.60;;;4.20;;
61617;SDS011;47518;51.776;9.370;2023-05-10T10:21:38;5.05;;;4.20;;
61617;SDS011;47518;51.776;9.370;2023-05-10T10:24:03;4.97;;;4.15;;
61617;SDS011;47518;51.776;9.370;2023-05-10T10:26:30;6.15;;;4.25;;
61617;SDS011;47518;51.776;9.370;2023-05-10T10:29:04;4.47;;;4.00;;
61617;SDS011;47518;51.776;9.370;2023-05-10T10:34:40;5.72;;;4.20;;
61617;SDS011;47518;51.776;9.370;2023-05-10T10:37:06;6.68;;;4.57;;
61617;SDS011;47518;51.776;9.370;2023-05-10T10:39:32;8.10;;;4.97;;
61617;SDS011;47518;51.776;9.370;2023-05-10T10:41:58;7.55;;;4.65;;
61617;SDS011;47518;51.776;9.370;2023-05-10T10:52:57;6.63;;;4.88;;
61617;SDS011;47518;51.776;9.370;2023-05-10T10:59:07;6.20;;;5.60;;
61617;SDS011;47518;51.776;9.370;2023-05-10T11:01:40;5.60;;;5.07;;
61617;SDS011;47518;51.776;9.370;2023-05-10T11:04:18;7.05;;;5.38;;
61617;SDS011;47518;51.776;9.370;2023-05-10T11:06:49;6.20;;;5.60;;
61617;SDS011;47518;51.776;9.370;2023-05-10T11:09:15;5.53;;;5.03;;
61617;SDS011;47518;51.776;9.370;2023-05-10T11:11:48;6.63;;;5.88;;
61617;SDS011;47518;51.776;9.370;2023-05-10T11:14:39;6.75;;;6.18;;
61617;SDS011;47518;51.776;9.370;2023-05-10T11:20:09;7.25;;;6.55;;
61617;SDS011;47518;51.776;9.370;2023-05-10T11:22:53;7.60;;;6.90;;
61617;SDS011;47518;51.776;9.370;2023-05-10T11:25:31;7.07;;;6.47;;
61617;SDS011;47518;51.776;9.370;2023-05-10T11:27:58;6.93;;;6.05;;
61617;SDS011;47518;51.776;9.370;2023-05-10T11:30:38;9.32;;;6.35;;
61617;SDS011;47518;51.776;9.370;2023-05-10T11:33:07;6.90;;;6.20;;
61617;SDS011;47518;51.776;9.370;2023-05-10T11:35:49;9.10;;;6.25;;
61617;SDS011;47518;51.776;9.370;2023-05-10T11:38:14;6.90;;;6.30;;
61617;SDS011;47518;51.776;9.370;2023-05-10T11:40:50;6.75;;;6.10;;
61617;SDS011;47518;51.776;9.370;2023-05-10T11:43:28;10.40;;;5.90;;
61617;SDS011;47518;51.776;9.370;2023-05-10T11:45:58;7.05;;;5.90;;
61617;SDS011;47518;51.776;9.370;2023-05-10T11:48:34;7.57;;;5.60;;
61617;SDS011;47518;51.776;9.370;2023-05-10T11:51:00;6.55;;;5.70;;
61617;SDS011;47518;51.776;9.370;2023-05-10T11:53:59;7.03;;;6.15;;
61617;SDS011;47518;51.776;9.370;2023-05-10T11:58:59;6.45;;;5.85;;
61617;SDS011;47518;51.776;9.370;2023-05-10T12:01:46;6.65;;;6.05;;
61617;SDS011;47518;51.776;9.370;2023-05-10T12:13:39;6.65;;;5.95;;
61617;SDS011;47518;51.776;9.370;2023-05-10T12:16:13;8.23;;;6.90;;
61617;SDS011;47518;51.776;9.370;2023-05-10T12:18:49;7.72;;;6.45;;
61617;SDS011;47518;51.776;9.370;2023-05-10T12:21:32;9.63;;;7.07;;
61617;SDS011;47518;51.776;9.370;2023-05-10T12:24:06;7.45;;;6.75;;
61617;SDS011;47518;51.776;9.370;2023-05-10T12:26:38;8.38;;;7.03;;
61617;SDS011;47518;51.776;9.370;2023-05-10T12:29:11;8.50;;;6.78;;
61617;SDS011;47518;51.776;9.370;2023-05-10T12:31:55;7.10;;;6.50;;
61617;SDS011;47518;51.776;9.370;2023-05-10T12:34:31;7.35;;;6.65;;
61617;SDS011;47518;51.776;9.370;2023-05-10T12:37:02;9.70;;;6.82;;
61617;SDS011;47518;51.776;9.370;2023-05-10T12:39:44;7.35;;;6.68;;
61617;SDS011;47518;51.776;9.370;2023-05-10T12:42:18;8.23;;;7.40;;
61617;SDS011;47518;51.776;9.370;2023-05-10T12:45:19;7.65;;;6.70;;
61617;SDS011;47518;51.776;9.370;2023-05-10T12:48:20;6.90;;;6.20;;
61617;SDS011;47518;51.776;9.370;2023-05-10T12:51:01;7.28;;;6.43;;
61617;SDS011;47518;51.776;9.370;2023-05-10T12:53:40;7.47;;;6.47;;
61617;SDS011;47518;51.776;9.370;2023-05-10T12:56:09;9.07;;;5.88;;
61617;SDS011;47518;51.776;9.370;2023-05-10T12:58:34;8.15;;;6.97;;
61617;SDS011;47518;51.776;9.370;2023-05-10T13:01:00;8.25;;;6.30;;
61617;SDS011;47518;51.776;9.370;2023-05-10T13:03:26;6.90;;;6.13;;
61617;SDS011;47518;51.776;9.370;2023-05-10T13:05:51;10.65;;;6.25;;
61617;SDS011;47518;51.776;9.370;2023-05-10T13:08:19;7.63;;;6.28;;
61617;SDS011;47518;51.776;9.370;2023-05-10T13:10:44;7.47;;;6.72;;
61617;SDS011;47518;51.776;9.370;2023-05-10T13:13:10;7.22;;;6.57;;
61617;SDS011;47518;51.776;9.370;2023-05-10T13:15:35;8.40;;;6.40;;
61617;SDS011;47518;51.776;9.370;2023-05-10T13:18:01;6.88;;;6.00;;
61617;SDS011;47518;51.776;9.370;2023-05-10T13:20:26;7.47;;;6.40;;
61617;SDS011;47518;51.776;9.370;2023-05-10T13:22:52;7.95;;;7.10;;
61617;SDS011;47518;51.776;9.370;2023-05-10T13:25:17;7.18;;;6.30;;
61617;SDS011;47518;51.776;9.370;2023-05-10T13:27:43;6.63;;;5.90;;
61617;SDS011;47518;51.776;9.370;2023-05-10T13:30:15;10.52;;;6.18;;
61617;SDS011;47518;51.776;9.370;2023-05-10T13:32:40;7.10;;;6.45;;
61617;SDS011;47518;51.776;9.370;2023-05-10T13:35:06;8.00;;;7.13;;
61617;SDS011;47518;51.776;9.370;2023-05-10T13:37:33;6.00;;;5.50;;
61617;SDS011;47518;51.776;9.370;2023-05-10T13:40:04;9.00;;;8.00;;
61617;SDS011;47518;51.776;9.370;2023-05-10T13:42:31;8.40;;;5.88;;
61617;SDS011;47518;51.776;9.370;2023-05-10T13:44:58;8.40;;;7.28;;
61617;SDS011;47518;51.776;9.370;2023-05-10T13:47:25;9.32;;;7.03;;
61617;SDS011;47518;51.776;9.370;2023-05-10T13:49:51;11.40;;;7.90;;
61617;SDS011;47518;51.776;9.370;2023-05-10T13:52:17;7.88;;;7.03;;
61617;SDS011;47518;51.776;9.370;2023-05-10T13:54:43;8.25;;;6.55;;
61617;SDS011;47518;51.776;9.370;2023-05-10T13:57:11;7.13;;;6.53;;
61617;SDS011;47518;51.776;9.370;2023-05-10T13:59:38;7.95;;;7.03;;
61617;SDS011;47518;51.776;9.370;2023-05-10T14:02:04;7.95;;;6.53;;
61617;SDS011;47518;51.776;9.370;2023-05-10T14:04:29;5.88;;;5.32;;
61617;SDS011;47518;51.776;9.370;2023-05-10T14:06:55;4.30;;;3.88;;
61617;SDS011;47518;51.776;9.370;2023-05-10T14:09:21;4.32;;;4.03;;
61617;SDS011;47518;51.776;9.370;2023-05-10T14:11:46;5.07;;;4.50;;
61617;SDS011;47518;51.776;9.370;2023-05-10T14:14:12;8.52;;;4.65;;
61617;SDS011;47518;51.776;9.370;2023-05-10T14:16:38;5.00;;;4.50;;
61617;SDS011;47518;51.776;9.370;2023-05-10T14:21:35;4.72;;;4.32;;
61617;SDS011;47518;51.776;9.370;2023-05-10T14:24:00;4.65;;;4.25;;
61617;SDS011;47518;51.776;9.370;2023-05-10T14:26:25;4.18;;;3.78;;
61617;SDS011;47518;51.776;9.370;2023-05-10T14:28:53;4.00;;;3.70;;
61617;SDS011;47518;51.776;9.370;2023-05-10T14:31:19;3.38;;;3.17;;
61617;SDS011;47518;51.776;9.370;2023-05-10T14:33:46;4.05;;;3.05;;
61617;SDS011;47518;51.776;9.370;2023-05-10T14:36:12;3.13;;;2.92;;
61617;SDS011;47518;51.776;9.370;2023-05-10T14:38:38;3.22;;;2.72;;
61617;SDS011;47518;51.776;9.370;2023-05-10T14:41:04;2.70;;;2.60;;
61617;SDS011;47518;51.776;9.370;2023-05-10T14:43:32;3.78;;;2.70;;
61617;SDS011;47518;51.776;9.370;2023-05-10T14:45:57;3.28;;;2.97;;
61617;SDS011;47518;51.776;9.370;2023-05-10T14:48:23;3.55;;;2.80;;
61617;SDS011;47518;51.776;9.370;2023-05-10T14:50:48;3.00;;;2.80;;
61617;SDS011;47518;51.776;9.370;2023-05-10T14:53:14;2.95;;;2.75;;
61617;SDS011;47518;51.776;9.370;2023-05-10T14:55:42;3.08;;;2.78;;
61617;SDS011;47518;51.776;9.370;2023-05-10T14:58:08;3.00;;;2.70;;
61617;SDS011;47518;51.776;9.370;2023-05-10T15:00:33;3.00;;;2.80;;
61617;SDS011;47518;51.776;9.370;2023-05-10T15:02:59;3.08;;;2.88;;
61617;SDS011;47518;51.776;9.370;2023-05-10T15:05:24;4.32;;;2.83;;
61617;SDS011;47518;51.776;9.370;2023-05-10T15:07:50;3.08;;;2.88;;
61617;SDS011;47518;51.776;9.370;2023-05-10T15:10:15;2.90;;;2.70;;
61617;SDS011;47518;51.776;9.370;2023-05-10T15:12:41;2.60;;;2.50;;
61617;SDS011;47518;51.776;9.370;2023-05-10T15:15:06;3.00;;;2.80;;
61617;SDS011;47518;51.776;9.370;2023-05-10T15:17:32;4.82;;;3.40;;
61617;SDS011;47518;51.776;9.370;2023-05-10T15:19:58;3.60;;;3.30;;
61617;SDS011;47518;51.776;9.370;2023-05-10T15:22:23;4.13;;;3.72;;
61617;SDS011;47518;51.776;9.370;2023-05-10T15:24:49;7.20;;;4.40;;
61617;SDS011;47518;51.776;9.370;2023-05-10T15:27:18;5.32;;;4.82;;
61617;SDS011;47518;51.776;9.370;2023-05-10T15:29:43;5.70;;;4.60;;
61617;SDS011;47518;51.776;9.370;2023-05-10T15:32:08;9.43;;;5.00;;
61617;SDS011;47518;51.776;9.370;2023-05-10T15:34:34;6.60;;;6.00;;
61617;SDS011;47518;51.776;9.370;2023-05-10T15:37:01;7.03;;;6.40;;
61617;SDS011;47518;51.776;9.370;2023-05-10T15:39:26;7.32;;;6.63;;
61617;SDS011;47518;51.776;9.370;2023-05-10T15:41:52;8.02;;;6.35;;
61617;SDS011;47518;51.776;9.370;2023-05-10T15:44:17;9.77;;;7.18;;
61617;SDS011;47518;51.776;9.370;2023-05-10T15:46:43;10.32;;;7.07;;
61617;SDS011;47518;51.776;9.370;2023-05-10T15:49:08;10.43;;;7.88;;
61617;SDS011;47518;51.776;9.370;2023-05-10T15:51:34;10.02;;;8.02;;
61617;SDS011;47518;51.776;9.370;2023-05-10T15:53:59;13.68;;;9.40;;
61617;SDS011;47518;51.776;9.370;2023-05-10T15:56:27;14.02;;;9.10;;
61617;SDS011;47518;51.776;9.370;2023-05-10T15:58:53;12.23;;;9.68;;
61617;SDS011;47518;51.776;9.370;2023-05-10T16:01:18;13.95;;;9.75;;
61617;SDS011;47518;51.776;9.370;2023-05-10T16:03:52;14.05;;;9.88;;
61617;SDS011;47518;51.776;9.370;2023-05-10T16:06:18;15.20;;;9.43;;
61617;SDS011;47518;51.776;9.370;2023-05-10T16:08:43;13.68;;;10.23;;
61617;SDS011;47518;51.776;9.370;2023-05-10T16:11:08;13.07;;;9.23;;
61617;SDS011;47518;51.776;9.370;2023-05-10T16:13:34;14.23;;;10.30;;
61617;SDS011;47518;51.776;9.370;2023-05-10T16:15:59;11.10;;;8.70;;